createdAt,value
2019-03-19T00:00:26.454Z,79.03
2019-03-19T00:02:55.684Z,79.24
2019-03-19T00:05:24.975Z,79.33
2019-03-19T00:07:54.151Z,79.37
2019-03-19T00:10:23.368Z,79.54
2019-03-19T00:12:52.844Z,79.60
2019-03-19T00:15:23.776Z,79.67
2019-03-19T00:17:52.955Z,79.64
2019-03-19T00:20:22.361Z,79.56
2019-03-19T00:22:53.330Z,79.59
2019-03-19T00:25:30.112Z,79.70
2019-03-19T00:27:54.489Z,79.80
2019-03-19T00:30:23.708Z,79.81
2019-03-19T00:32:53.219Z,79.85
2019-03-19T00:35:22.369Z,79.81
2019-03-19T00:37:51.898Z,79.76
2019-03-19T00:40:21.129Z,79.68
2019-03-19T00:42:50.606Z,79.57
2019-03-19T00:45:20.134Z,79.47
2019-03-19T00:47:49.332Z,79.35
2019-03-19T00:50:18.540Z,79.22
2019-03-19T00:52:48.020Z,78.99
2019-03-19T00:55:18.006Z,78.91
2019-03-19T00:57:47.878Z,78.91
2019-03-19T01:00:17.669Z,78.99
2019-03-19T01:02:47.202Z,79.07
2019-03-19T01:05:16.764Z,79.20
2019-03-19T01:07:46.392Z,79.23
2019-03-19T01:10:17.436Z,79.19
2019-03-19T01:12:47.119Z,79.13
2019-03-19T01:15:16.775Z,79.04
2019-03-19T01:17:45.939Z,79.03
2019-03-19T01:20:15.459Z,79.01
2019-03-19T01:22:46.955Z,78.94
2019-03-19T01:25:16.226Z,78.95
2019-03-19T01:27:45.408Z,78.97
2019-03-19T01:30:14.677Z,78.91
2019-03-19T01:32:44.189Z,78.90
2019-03-19T01:35:13.357Z,78.86
2019-03-19T01:37:42.525Z,78.99
2019-03-19T01:40:11.797Z,79.04
2019-03-19T01:42:41.417Z,79.24
2019-03-19T01:45:10.662Z,79.40
2019-03-19T01:47:39.830Z,79.50
2019-03-19T01:50:09.333Z,79.62
2019-03-19T01:52:38.883Z,79.60
2019-03-19T01:55:09.802Z,79.50
2019-03-19T01:57:39.011Z,79.43
2019-03-19T02:00:10.155Z,79.41
2019-03-19T02:02:40.783Z,79.44
2019-03-19T02:05:09.932Z,79.59
2019-03-19T02:07:39.376Z,79.71
2019-03-19T02:10:09.331Z,79.72
2019-03-19T02:12:38.863Z,79.71
2019-03-19T02:15:10.083Z,79.66
2019-03-19T02:17:39.231Z,79.72
2019-03-19T02:20:10.412Z,79.77
2019-03-19T02:22:40.160Z,79.76
2019-03-19T02:25:11.185Z,79.70
2019-03-19T02:27:42.567Z,79.71
2019-03-19T02:30:12.325Z,79.64
2019-03-19T02:32:41.813Z,79.56
2019-03-19T02:35:11.167Z,79.63
2019-03-19T02:37:40.635Z,79.73
2019-03-19T02:40:10.177Z,79.73
2019-03-19T02:42:39.450Z,79.64
2019-03-19T02:45:09.154Z,79.57
2019-03-19T02:47:38.317Z,79.57
2019-03-19T02:50:08.622Z,79.53
2019-03-19T02:52:38.583Z,79.59
2019-03-19T02:55:09.574Z,79.59
2019-03-19T02:57:38.816Z,79.58
2019-03-19T03:00:09.771Z,79.58
2019-03-19T03:02:41.153Z,79.64
2019-03-19T03:05:11.567Z,79.65
2019-03-19T03:07:41.049Z,79.60
2019-03-19T03:10:11.024Z,79.55
2019-03-19T03:12:40.193Z,79.46
2019-03-19T03:15:09.665Z,79.41
2019-03-19T03:17:38.860Z,79.35
2019-03-19T03:20:08.792Z,79.30
2019-03-19T03:22:37.929Z,79.29
2019-03-19T03:25:07.692Z,79.36
2019-03-19T03:27:36.920Z,79.47
2019-03-19T03:30:07.052Z,79.47
2019-03-19T03:32:36.897Z,79.45
2019-03-19T03:35:06.830Z,79.44
2019-03-19T03:37:36.328Z,79.57
2019-03-19T03:40:06.590Z,79.75
2019-03-19T03:42:35.918Z,79.89
2019-03-19T03:45:05.683Z,79.98
2019-03-19T03:47:35.030Z,80.08
2019-03-19T03:50:05.084Z,80.15
2019-03-19T03:52:34.272Z,80.15
2019-03-19T03:55:03.480Z,80.21
2019-03-19T03:57:33.066Z,80.30
2019-03-19T04:00:02.232Z,80.46
2019-03-19T04:02:31.417Z,80.56
2019-03-19T04:05:00.618Z,80.63
2019-03-19T04:07:30.422Z,80.63
2019-03-19T04:09:59.649Z,80.61
2019-03-19T04:12:29.177Z,80.59
2019-03-19T04:14:58.377Z,80.59
2019-03-19T04:17:27.581Z,80.58
2019-03-19T04:19:56.776Z,80.56
2019-03-19T04:22:25.974Z,80.55
2019-03-19T04:24:55.227Z,80.55
2019-03-19T04:27:25.262Z,80.53
2019-03-19T04:29:54.458Z,80.45
2019-03-19T04:32:23.715Z,80.38
2019-03-19T04:34:53.566Z,80.30
2019-03-19T04:37:22.750Z,80.24
2019-03-19T04:39:51.932Z,80.17
2019-03-19T04:42:21.465Z,80.10
2019-03-19T04:44:50.666Z,80.04
2019-03-19T04:47:19.817Z,80.03
2019-03-19T04:49:49.379Z,79.98
2019-03-19T04:52:18.877Z,79.92
2019-03-19T04:54:48.457Z,79.85
2019-03-19T04:57:26.279Z,79.76
2019-03-19T04:59:49.005Z,79.71
2019-03-19T05:02:21.460Z,79.75
2019-03-19T05:04:50.640Z,79.76
2019-03-19T05:07:19.891Z,79.78
2019-03-19T05:09:49.660Z,79.77
2019-03-19T05:12:18.826Z,79.73
2019-03-19T05:14:48.123Z,79.73
2019-03-19T05:17:17.723Z,79.79
2019-03-19T05:19:47.308Z,79.82
2019-03-19T05:22:16.525Z,79.82
2019-03-19T05:24:46.299Z,79.79
2019-03-19T05:27:15.811Z,79.76
2019-03-19T05:29:46.835Z,79.77
2019-03-19T05:32:16.249Z,79.76
2019-03-19T05:34:45.756Z,79.77
2019-03-19T05:37:15.282Z,79.79
2019-03-19T05:39:44.526Z,79.85
2019-03-19T05:42:13.736Z,79.88
2019-03-19T05:44:42.948Z,79.88
2019-03-19T05:47:12.831Z,79.88
2019-03-19T05:49:42.049Z,79.96
2019-03-19T05:52:11.646Z,80.02
2019-03-19T05:54:40.853Z,80.08
2019-03-19T05:57:10.058Z,80.15
2019-03-19T05:59:40.142Z,80.21
2019-03-19T06:02:09.451Z,80.27
2019-03-19T06:04:38.963Z,80.33
2019-03-19T06:07:08.138Z,80.38
2019-03-19T06:09:37.280Z,80.39
2019-03-19T06:12:06.512Z,80.45
2019-03-19T06:14:35.761Z,80.50
2019-03-19T06:17:05.268Z,80.55
2019-03-19T06:19:34.499Z,80.59
2019-03-19T06:22:03.719Z,80.64
2019-03-19T06:24:33.264Z,80.70
2019-03-19T06:27:02.792Z,80.74
2019-03-19T06:29:32.005Z,80.82
2019-03-19T06:32:01.506Z,80.90
2019-03-19T06:34:30.691Z,80.97
2019-03-19T06:37:01.572Z,81.03
2019-03-19T06:39:30.869Z,81.10
2019-03-19T06:42:00.077Z,81.18
2019-03-19T06:44:29.300Z,81.25
2019-03-19T06:46:58.442Z,81.31
2019-03-19T06:49:27.641Z,81.35
2019-03-19T06:51:56.869Z,81.39
2019-03-19T06:54:28.638Z,81.43
2019-03-19T06:56:57.811Z,81.49
2019-03-19T06:59:27.039Z,81.52
2019-03-19T07:01:56.555Z,81.56
2019-03-19T07:04:26.196Z,81.58
2019-03-19T07:06:55.367Z,81.57
2019-03-19T07:09:24.552Z,81.54
2019-03-19T07:11:53.735Z,81.51
2019-03-19T07:14:22.965Z,81.46
2019-03-19T07:16:54.199Z,81.42
2019-03-19T07:19:23.916Z,81.41
2019-03-19T07:21:53.193Z,81.41
2019-03-19T07:24:22.367Z,81.40
2019-03-19T07:26:51.562Z,81.37
2019-03-19T07:29:21.017Z,81.34
2019-03-19T07:31:50.529Z,81.28
2019-03-19T07:34:22.926Z,81.22
2019-03-19T07:36:52.476Z,81.14
2019-03-19T07:39:22.012Z,81.02
2019-03-19T07:41:51.514Z,80.83
2019-03-19T07:44:21.333Z,80.60
2019-03-19T07:46:50.598Z,80.49
2019-03-19T07:49:20.039Z,80.36
2019-03-19T07:51:49.880Z,80.32
2019-03-19T07:54:19.127Z,80.30
2019-03-19T07:56:48.300Z,80.27
2019-03-19T07:59:18.367Z,80.19
2019-03-19T08:01:50.050Z,80.06
2019-03-19T08:04:19.294Z,79.92
2019-03-19T08:06:52.018Z,79.79
2019-03-19T08:09:22.350Z,79.80
2019-03-19T08:11:51.873Z,79.68
2019-03-19T08:14:21.440Z,79.48
2019-03-19T08:16:53.168Z,79.40
2019-03-19T08:19:22.274Z,79.39
2019-03-19T08:21:51.461Z,79.24
2019-03-19T08:24:20.651Z,79.10
2019-03-19T08:26:51.010Z,78.98
2019-03-19T08:29:20.218Z,78.76
2019-03-19T08:31:49.352Z,78.37
2019-03-19T08:34:19.066Z,78.19
2019-03-19T08:36:48.206Z,78.15
2019-03-19T08:39:17.777Z,78.12
2019-03-19T08:41:48.435Z,77.99
2019-03-19T08:44:27.274Z,77.44
2019-03-19T08:46:48.552Z,77.42
2019-03-19T08:49:17.793Z,77.06
2019-03-19T08:51:47.348Z,76.65
2019-03-19T08:54:16.553Z,76.69
2019-03-19T08:56:45.738Z,76.38
2019-03-19T08:59:15.533Z,76.12
2019-03-19T09:01:44.695Z,76.45
2019-03-19T09:04:13.874Z,76.14
2019-03-19T09:06:43.434Z,75.95
2019-03-19T09:09:15.350Z,75.45
2019-03-19T09:11:44.905Z,75.70
2019-03-19T09:14:15.249Z,74.93
2019-03-19T09:16:45.764Z,74.85
2019-03-19T09:19:15.627Z,74.93
2019-03-19T09:21:45.079Z,73.97
2019-03-19T09:24:14.267Z,71.69
2019-03-19T09:26:43.924Z,72.92
2019-03-19T09:29:17.038Z,72.28
2019-03-19T09:31:44.338Z,72.63
2019-03-19T09:34:13.947Z,73.36
2019-03-19T09:36:43.156Z,72.58
2019-03-19T09:39:13.007Z,64.47
2019-03-19T09:41:42.781Z,65.23
2019-03-19T09:44:11.964Z,63.33
2019-03-19T09:46:42.257Z,65.58
2019-03-19T09:49:11.699Z,65.69
2019-03-19T09:51:41.341Z,66.62
2019-03-19T09:54:10.507Z,65.11
2019-03-19T09:56:39.997Z,59.93
2019-03-19T09:59:09.215Z,60.72
2019-03-19T10:01:39.813Z,55.89
2019-03-19T10:04:09.373Z,57.18
2019-03-19T10:06:38.575Z,54.57
2019-03-19T10:09:11.995Z,53.88
2019-03-19T10:11:41.264Z,53.38
2019-03-19T10:14:11.754Z,52.09
2019-03-19T10:16:40.900Z,52.70
2019-03-19T10:19:10.761Z,52.89
2019-03-19T10:21:40.515Z,50.59
2019-03-19T10:24:10.014Z,51.05
2019-03-19T10:26:39.560Z,50.97
2019-03-19T10:29:08.770Z,49.30
2019-03-19T10:31:38.332Z,49.55
2019-03-19T10:34:07.556Z,50.55
2019-03-19T10:36:36.801Z,50.57
2019-03-19T10:39:09.170Z,49.92
2019-03-19T10:41:38.567Z,51.31
2019-03-19T10:44:07.710Z,50.90
2019-03-19T10:46:37.211Z,49.96
2019-03-19T10:49:06.380Z,48.70
2019-03-19T10:51:36.573Z,49.73
2019-03-19T10:54:05.741Z,48.89
2019-03-19T10:56:35.100Z,49.64
2019-03-19T10:59:05.892Z,50.42
2019-03-19T11:01:35.038Z,50.53
2019-03-19T11:04:04.219Z,49.78
2019-03-19T11:06:33.375Z,50.33
2019-03-19T11:09:02.627Z,48.64
2019-03-19T11:11:34.531Z,47.73
2019-03-19T11:14:04.033Z,47.58
2019-03-19T11:16:33.954Z,49.04
2019-03-19T11:19:03.552Z,49.76
2019-03-19T11:21:34.587Z,49.65
2019-03-19T11:24:04.083Z,48.15
2019-03-19T11:26:33.606Z,48.51
2019-03-19T11:29:02.780Z,49.07
2019-03-19T11:31:32.214Z,48.93
2019-03-19T11:34:01.448Z,48.52
2019-03-19T11:36:30.669Z,47.64
2019-03-19T11:39:00.955Z,46.54
2019-03-19T11:41:30.177Z,47.31
2019-03-19T11:43:59.345Z,47.51
2019-03-19T11:46:28.943Z,47.71
2019-03-19T11:48:58.095Z,47.81
2019-03-19T11:51:27.315Z,48.45
2019-03-19T11:53:56.483Z,49.19
2019-03-19T11:56:26.797Z,48.86
2019-03-19T11:58:55.990Z,47.00
2019-03-19T12:01:25.488Z,46.29
2019-03-19T12:03:54.675Z,48.08
2019-03-19T12:06:23.938Z,46.64
2019-03-19T12:08:53.490Z,47.06
2019-03-19T12:11:22.661Z,45.77
2019-03-19T12:13:51.857Z,44.75
2019-03-19T12:16:21.036Z,45.85
2019-03-19T12:18:50.510Z,45.15
2019-03-19T12:21:19.663Z,45.50
2019-03-19T12:23:49.220Z,45.63
2019-03-19T12:26:18.815Z,46.14
2019-03-19T12:28:48.367Z,45.80
2019-03-19T12:31:17.910Z,46.14
2019-03-19T12:33:47.456Z,45.27
2019-03-19T12:36:17.111Z,45.66
2019-03-19T12:38:46.267Z,45.18
2019-03-19T12:41:15.474Z,43.31
2019-03-19T12:43:45.471Z,42.82
2019-03-19T12:46:14.642Z,41.66
2019-03-19T12:48:44.147Z,42.57
2019-03-19T12:51:13.293Z,43.25
2019-03-19T12:53:42.915Z,44.10
2019-03-19T12:56:15.046Z,43.03
2019-03-19T12:58:47.347Z,43.00
2019-03-19T13:01:16.580Z,43.07
2019-03-19T13:03:45.818Z,44.28
2019-03-19T13:06:15.227Z,43.10
2019-03-19T13:08:44.401Z,43.78
2019-03-19T13:11:13.591Z,42.81
2019-03-19T13:13:42.744Z,44.50
2019-03-19T13:16:11.907Z,42.49
2019-03-19T13:18:43.125Z,43.12
2019-03-19T13:21:12.339Z,42.28
2019-03-19T13:23:41.514Z,42.55
2019-03-19T13:26:12.007Z,43.18
2019-03-19T13:28:43.276Z,42.35
2019-03-19T13:31:12.434Z,42.95
2019-03-19T13:33:41.651Z,42.04
2019-03-19T13:36:10.869Z,41.43
2019-03-19T13:38:40.318Z,43.11
2019-03-19T13:41:09.812Z,42.02
2019-03-19T13:43:38.966Z,41.53
2019-03-19T13:46:08.209Z,40.56
2019-03-19T13:48:38.153Z,41.58
2019-03-19T13:51:07.325Z,41.72
2019-03-19T13:53:36.523Z,43.08
2019-03-19T13:56:05.980Z,41.34
2019-03-19T13:58:37.211Z,42.21
2019-03-19T14:01:07.487Z,41.12
2019-03-19T14:03:36.671Z,41.44
2019-03-19T14:06:05.862Z,42.52
2019-03-19T14:08:35.048Z,42.60
2019-03-19T14:11:04.527Z,42.64
2019-03-19T14:13:33.700Z,42.42
2019-03-19T14:16:02.899Z,42.00
2019-03-19T14:18:33.099Z,42.34
2019-03-19T14:21:02.284Z,43.03
2019-03-19T14:23:31.772Z,41.56
2019-03-19T14:26:00.992Z,41.93
2019-03-19T14:28:32.203Z,42.12
2019-03-19T14:31:08.447Z,41.91
2019-03-19T14:33:32.336Z,42.60
2019-03-19T14:36:01.898Z,42.20
2019-03-19T14:38:31.136Z,42.23
2019-03-19T14:41:00.326Z,41.39
2019-03-19T14:43:29.828Z,42.36
2019-03-19T14:45:59.344Z,42.28
2019-03-19T14:48:28.558Z,42.18
2019-03-19T14:50:57.814Z,43.08
2019-03-19T14:53:28.070Z,43.96
2019-03-19T14:55:57.227Z,43.87
2019-03-19T14:58:27.501Z,43.29
2019-03-19T15:00:56.694Z,43.80
2019-03-19T15:03:25.882Z,43.99
2019-03-19T15:05:56.312Z,44.65
2019-03-19T15:08:25.701Z,44.46
2019-03-19T15:10:54.983Z,44.86
2019-03-19T15:13:24.188Z,45.69
2019-03-19T15:15:54.449Z,44.73
2019-03-19T15:18:23.955Z,45.47
2019-03-19T15:20:53.452Z,45.07
2019-03-19T15:23:22.630Z,45.58
2019-03-19T15:25:54.205Z,45.63
2019-03-19T15:28:23.434Z,45.90
2019-03-19T15:30:52.658Z,45.90
2019-03-19T15:33:21.872Z,46.44
2019-03-19T15:35:51.031Z,47.24
2019-03-19T15:38:22.085Z,46.63
2019-03-19T15:40:51.299Z,47.27
2019-03-19T15:43:20.950Z,47.96
2019-03-19T15:45:50.155Z,47.26
2019-03-19T15:48:19.947Z,46.68
2019-03-19T15:50:49.134Z,47.23
2019-03-19T15:53:18.363Z,47.05
2019-03-19T15:55:47.523Z,46.38
2019-03-19T15:58:16.749Z,46.92
2019-03-19T16:00:46.004Z,48.00
2019-03-19T16:03:15.503Z,46.91
2019-03-19T16:05:44.677Z,46.28
2019-03-19T16:08:13.843Z,45.44
2019-03-19T16:10:44.723Z,45.50
2019-03-19T16:13:13.954Z,46.85
2019-03-19T16:15:43.285Z,46.42
2019-03-19T16:18:12.463Z,46.80
2019-03-19T16:20:41.622Z,47.15
2019-03-19T16:23:10.823Z,47.47
2019-03-19T16:25:40.308Z,47.19
2019-03-19T16:28:12.580Z,47.43
2019-03-19T16:30:42.083Z,47.55
2019-03-19T16:33:11.278Z,47.97
2019-03-19T16:35:40.838Z,47.47
2019-03-19T16:38:10.425Z,48.05
2019-03-19T16:40:39.594Z,47.51
2019-03-19T16:43:10.841Z,47.89
2019-03-19T16:45:42.197Z,48.60
2019-03-19T16:48:11.406Z,49.08
2019-03-19T16:50:40.636Z,49.88
2019-03-19T16:53:09.799Z,49.68
2019-03-19T16:55:39.106Z,50.27
2019-03-19T16:58:08.587Z,51.05
2019-03-19T17:00:37.841Z,51.00
2019-03-19T17:03:09.010Z,52.30
2019-03-19T17:05:38.185Z,52.02
2019-03-19T17:08:07.443Z,51.74
2019-03-19T17:10:37.119Z,52.37
2019-03-19T17:13:06.769Z,52.39
2019-03-19T17:15:35.926Z,52.92
2019-03-19T17:18:05.269Z,53.58
2019-03-19T17:20:35.486Z,54.05
2019-03-19T17:23:04.741Z,54.67
2019-03-19T17:25:35.179Z,55.28
2019-03-19T17:28:04.529Z,55.75
2019-03-19T17:30:34.197Z,56.19
2019-03-19T17:33:03.379Z,56.79
2019-03-19T17:35:32.640Z,57.52
2019-03-19T17:38:02.148Z,58.06
2019-03-19T17:40:40.926Z,58.35
2019-03-19T17:43:02.855Z,59.03
2019-03-19T17:45:33.724Z,59.37
2019-03-19T17:48:03.409Z,59.82
2019-03-19T17:50:32.808Z,60.36
2019-03-19T17:53:02.495Z,60.53
2019-03-19T17:55:31.947Z,61.30
2019-03-19T17:58:01.167Z,61.57
2019-03-19T18:00:30.562Z,61.90
2019-03-19T18:03:00.113Z,62.26
2019-03-19T18:05:29.318Z,62.69
2019-03-19T18:07:58.511Z,63.27
2019-03-19T18:10:30.729Z,63.56
2019-03-19T18:12:59.896Z,63.90
2019-03-19T18:15:29.742Z,64.22
2019-03-19T18:17:59.755Z,64.39
2019-03-19T18:20:29.827Z,64.66
2019-03-19T18:22:59.842Z,64.67
2019-03-19T18:25:29.505Z,64.90
2019-03-19T18:27:59.024Z,65.18
2019-03-19T18:30:28.554Z,65.30
2019-03-19T18:32:58.046Z,64.62
2019-03-19T18:35:27.359Z,64.17
2019-03-19T18:37:56.622Z,64.58
2019-03-19T18:40:26.156Z,64.36
2019-03-19T18:42:56.053Z,63.63
2019-03-19T18:45:25.377Z,63.29
2019-03-19T18:47:55.041Z,62.79
2019-03-19T18:50:24.723Z,62.92
2019-03-19T18:52:53.935Z,62.92
2019-03-19T18:55:25.335Z,63.42
2019-03-19T18:57:55.520Z,63.70
2019-03-19T19:00:26.981Z,63.97
2019-03-19T19:02:56.516Z,64.38
2019-03-19T19:05:25.722Z,64.50
2019-03-19T19:07:55.311Z,65.02
2019-03-19T19:10:24.860Z,65.27
2019-03-19T19:12:54.022Z,65.20
2019-03-19T19:15:23.234Z,65.22
2019-03-19T19:17:52.762Z,65.52
2019-03-19T19:20:22.251Z,66.03
2019-03-19T19:22:52.023Z,66.35
2019-03-19T19:25:21.249Z,66.29
2019-03-19T19:27:50.440Z,65.89
2019-03-19T19:30:19.963Z,65.92
2019-03-19T19:33:00.547Z,65.65
2019-03-19T19:35:20.443Z,65.77
2019-03-19T19:37:50.041Z,65.94
2019-03-19T19:40:19.182Z,65.96
2019-03-19T19:42:48.764Z,66.22
2019-03-19T19:45:18.127Z,66.35
2019-03-19T19:47:49.081Z,66.75
2019-03-19T19:50:18.899Z,66.97
2019-03-19T19:52:48.081Z,67.06
2019-03-19T19:55:17.755Z,67.06
2019-03-19T19:57:46.989Z,66.96
2019-03-19T20:00:16.965Z,66.86
2019-03-19T20:02:46.620Z,66.98
2019-03-19T20:05:15.812Z,67.14
2019-03-19T20:07:45.652Z,67.03
2019-03-19T20:10:16.562Z,67.16
2019-03-19T20:12:45.854Z,67.13
2019-03-19T20:15:15.039Z,67.17
2019-03-19T20:17:44.403Z,67.19
2019-03-19T20:20:15.488Z,67.19
2019-03-19T20:22:44.979Z,66.91
2019-03-19T20:25:14.194Z,67.12
2019-03-19T20:27:43.742Z,67.17
2019-03-19T20:30:15.741Z,67.25
2019-03-19T20:32:46.262Z,67.44
2019-03-19T20:35:15.413Z,67.12
2019-03-19T20:37:44.609Z,66.94
2019-03-19T20:40:14.493Z,67.06
2019-03-19T20:42:44.157Z,67.06
2019-03-19T20:45:13.503Z,67.25
2019-03-19T20:47:42.803Z,67.48
2019-03-19T20:50:20.821Z,67.29
2019-03-19T20:52:50.422Z,67.72
2019-03-19T20:55:19.671Z,67.94
2019-03-19T20:57:49.123Z,67.65
2019-03-19T21:00:18.633Z,67.79
2019-03-19T21:02:48.070Z,67.58
2019-03-19T21:05:17.215Z,67.45
2019-03-19T21:07:46.836Z,67.45
2019-03-19T21:10:17.590Z,67.14
2019-03-19T21:12:46.917Z,66.75
2019-03-19T21:15:21.374Z,67.18
2019-03-19T21:17:50.595Z,67.07
2019-03-19T21:20:20.165Z,66.90
2019-03-19T21:22:49.695Z,67.05
2019-03-19T21:25:18.864Z,66.89
2019-03-19T21:27:48.490Z,66.99
2019-03-19T21:30:18.148Z,67.05
2019-03-19T21:32:47.385Z,67.12
2019-03-19T21:35:19.597Z,67.04
2019-03-19T21:37:49.266Z,67.09
2019-03-19T21:40:18.433Z,67.09
2019-03-19T21:42:48.013Z,66.99
2019-03-19T21:45:17.241Z,66.71
2019-03-19T21:47:46.413Z,66.71
2019-03-19T21:50:15.922Z,66.84
2019-03-19T21:52:45.091Z,66.44
2019-03-19T21:55:14.879Z,66.50
2019-03-19T21:57:44.127Z,66.20
2019-03-19T22:00:15.199Z,66.44
2019-03-19T22:02:44.456Z,66.44
2019-03-19T22:05:14.244Z,66.30
2019-03-19T22:07:43.768Z,66.07
2019-03-19T22:10:14.171Z,66.12
2019-03-19T22:12:43.672Z,66.12
2019-03-19T22:15:15.540Z,66.19
2019-03-19T22:17:45.057Z,66.30
2019-03-19T22:20:14.649Z,66.57
2019-03-19T22:22:44.213Z,66.79
2019-03-19T22:25:14.164Z,66.85
2019-03-19T22:27:43.407Z,66.95
2019-03-19T22:30:14.547Z,67.46
2019-03-19T22:32:43.759Z,67.39
2019-03-19T22:35:13.197Z,67.97
2019-03-19T22:37:42.856Z,68.14
2019-03-19T22:40:13.328Z,68.35
2019-03-19T22:42:42.493Z,68.47
2019-03-19T22:45:12.891Z,68.54
2019-03-19T22:47:42.075Z,68.62
2019-03-19T22:50:12.357Z,68.51
2019-03-19T22:52:43.012Z,68.30
2019-03-19T22:55:12.514Z,68.71
2019-03-19T22:57:42.002Z,68.53
2019-03-19T23:00:18.855Z,68.36
2019-03-19T23:02:47.991Z,68.12
2019-03-19T23:05:17.183Z,68.57
2019-03-19T23:07:46.470Z,68.75
2019-03-19T23:11:09.620Z,68.58
2019-03-19T23:13:39.209Z,68.84
2019-03-19T23:16:24.786Z,68.85
2019-03-19T23:18:54.095Z,68.85
2019-03-19T23:21:23.508Z,68.84
2019-03-19T23:23:53.004Z,68.86
2019-03-19T23:26:22.560Z,68.95
2019-03-19T23:28:52.155Z,69.32
2019-03-19T23:31:21.619Z,69.18
2019-03-19T23:33:50.917Z,69.14
2019-03-19T23:36:20.633Z,69.19
2019-03-19T23:38:49.734Z,69.20
2019-03-19T23:41:20.416Z,69.46
2019-03-19T23:43:50.003Z,69.61
2019-03-19T23:46:19.473Z,69.63
2019-03-19T23:48:48.681Z,69.59
2019-03-19T23:51:19.333Z,69.67
2019-03-19T23:53:48.869Z,69.60
2019-03-19T23:56:18.039Z,69.61
2019-03-19T23:58:47.329Z,69.67
